sensor_id;sensor_type;location;lat;lon;timestamp;P1;durP1;ratioP1;P2;durP2;ratioP2
55931;SDS011;41837;55.700;37.984;2022-08-20T00:01:24;43.00;;;16.25;;
55931;SDS011;41837;55.700;37.984;2022-08-20T00:03:50;42.78;;;16.35;;
55931;SDS011;41837;55.700;37.984;2022-08-20T00:06:18;46.70;;;18.55;;
55931;SDS011;41837;55.700;37.984;2022-08-20T00:08:44;44.10;;;18.98;;
55931;SDS011;41837;55.700;37.984;2022-08-20T00:11:12;43.28;;;20.52;;
55931;SDS011;41837;55.700;37.984;2022-08-20T00:13:40;39.28;;;19.10;;
55931;SDS011;41837;55.700;37.984;2022-08-20T00:16:07;42.85;;;20.15;;
55931;SDS011;41837;55.700;37.984;2022-08-20T00:18:33;35.40;;;19.50;;
55931;SDS011;41837;55.700;37.984;2022-08-20T00:21:03;36.17;;;20.85;;
55931;SDS011;41837;55.700;37.984;2022-08-20T00:23:29;38.17;;;20.30;;
55931;SDS011;41837;55.700;37.984;2022-08-20T00:25:55;36.20;;;19.70;;
55931;SDS011;41837;55.700;37.984;2022-08-20T00:28:21;38.58;;;19.85;;
55931;SDS011;41837;55.700;37.984;2022-08-20T00:30:48;35.95;;;19.65;;
55931;SDS011;41837;55.700;37.984;2022-08-20T00:33:15;36.05;;;19.25;;
55931;SDS011;41837;55.700;37.984;2022-08-20T00:35:44;41.83;;;19.13;;
55931;SDS011;41837;55.700;37.984;2022-08-20T00:38:10;46.20;;;19.20;;
55931;SDS011;41837;55.700;37.984;2022-08-20T00:40:38;35.92;;;19.85;;
55931;SDS011;41837;55.700;37.984;2022-08-20T00:43:06;40.58;;;18.77;;
55931;SDS011;41837;55.700;37.984;2022-08-20T00:45:32;40.53;;;19.90;;
55931;SDS011;41837;55.700;37.984;2022-08-20T00:47:59;31.05;;;18.77;;
55931;SDS011;41837;55.700;37.984;2022-08-20T00:50:30;32.38;;;18.98;;
55931;SDS011;41837;55.700;37.984;2022-08-20T00:52:58;51.90;;;36.10;;
55931;SDS011;41837;55.700;37.984;2022-08-20T00:55:25;71.93;;;51.90;;
55931;SDS011;41837;55.700;37.984;2022-08-20T00:57:52;94.70;;;63.65;;
55931;SDS011;41837;55.700;37.984;2022-08-20T01:00:21;51.25;;;33.38;;
55931;SDS011;41837;55.700;37.984;2022-08-20T01:02:47;48.40;;;30.27;;
55931;SDS011;41837;55.700;37.984;2022-08-20T01:05:14;42.25;;;22.20;;
55931;SDS011;41837;55.700;37.984;2022-08-20T01:07:41;42.80;;;20.50;;
55931;SDS011;41837;55.700;37.984;2022-08-20T01:12:36;49.50;;;19.35;;
55931;SDS011;41837;55.700;37.984;2022-08-20T01:15:03;43.60;;;19.13;;
55931;SDS011;41837;55.700;37.984;2022-08-20T01:17:31;40.88;;;18.15;;
55931;SDS011;41837;55.700;37.984;2022-08-20T01:20:13;40.55;;;18.42;;
55931;SDS011;41837;55.700;37.984;2022-08-20T01:22:53;44.17;;;17.90;;
55931;SDS011;41837;55.700;37.984;2022-08-20T01:28:12;35.13;;;16.58;;
55931;SDS011;41837;55.700;37.984;2022-08-20T01:30:39;35.53;;;16.60;;
55931;SDS011;41837;55.700;37.984;2022-08-20T01:33:06;36.33;;;17.40;;
55931;SDS011;41837;55.700;37.984;2022-08-20T01:35:39;36.33;;;16.27;;
55931;SDS011;41837;55.700;37.984;2022-08-20T01:38:06;33.08;;;16.02;;
55931;SDS011;41837;55.700;37.984;2022-08-20T01:43:18;39.13;;;16.13;;
55931;SDS011;41837;55.700;37.984;2022-08-20T01:45:44;44.45;;;16.25;;
55931;SDS011;41837;55.700;37.984;2022-08-20T01:48:10;48.22;;;16.13;;
55931;SDS011;41837;55.700;37.984;2022-08-20T01:50:37;32.70;;;16.35;;
55931;SDS011;41837;55.700;37.984;2022-08-20T01:53:20;36.22;;;16.30;;
55931;SDS011;41837;55.700;37.984;2022-08-20T01:55:49;45.10;;;15.30;;
55931;SDS011;41837;55.700;37.984;2022-08-20T01:58:15;33.28;;;16.55;;
55931;SDS011;41837;55.700;37.984;2022-08-20T02:00:41;35.85;;;16.23;;
55931;SDS011;41837;55.700;37.984;2022-08-20T02:03:06;51.45;;;18.55;;
55931;SDS011;41837;55.700;37.984;2022-08-20T02:05:33;56.55;;;18.45;;
55931;SDS011;41837;55.700;37.984;2022-08-20T02:08:00;48.13;;;19.35;;
55931;SDS011;41837;55.700;37.984;2022-08-20T02:10:27;37.03;;;17.60;;
55931;SDS011;41837;55.700;37.984;2022-08-20T02:12:56;31.40;;;17.67;;
55931;SDS011;41837;55.700;37.984;2022-08-20T02:15:43;33.40;;;15.82;;
55931;SDS011;41837;55.700;37.984;2022-08-20T02:18:11;40.80;;;15.75;;
55931;SDS011;41837;55.700;37.984;2022-08-20T02:20:38;34.67;;;16.45;;
55931;SDS011;41837;55.700;37.984;2022-08-20T02:23:06;35.78;;;16.52;;
55931;SDS011;41837;55.700;37.984;2022-08-20T02:25:33;34.83;;;17.33;;
55931;SDS011;41837;55.700;37.984;2022-08-20T02:28:02;36.90;;;17.73;;
55931;SDS011;41837;55.700;37.984;2022-08-20T02:30:32;67.35;;;18.65;;
55931;SDS011;41837;55.700;37.984;2022-08-20T02:33:03;68.95;;;21.15;;
55931;SDS011;41837;55.700;37.984;2022-08-20T02:35:30;40.42;;;19.98;;
55931;SDS011;41837;55.700;37.984;2022-08-20T02:37:56;39.05;;;19.90;;
55931;SDS011;41837;55.700;37.984;2022-08-20T02:40:24;35.33;;;20.23;;
55931;SDS011;41837;55.700;37.984;2022-08-20T02:42:53;33.95;;;20.15;;
55931;SDS011;41837;55.700;37.984;2022-08-20T02:45:19;36.95;;;20.40;;
55931;SDS011;41837;55.700;37.984;2022-08-20T02:47:47;35.45;;;19.88;;
55931;SDS011;41837;55.700;37.984;2022-08-20T02:50:16;42.22;;;18.75;;
55931;SDS011;41837;55.700;37.984;2022-08-20T02:52:42;47.97;;;20.77;;
55931;SDS011;41837;55.700;37.984;2022-08-20T02:55:08;36.65;;;19.30;;
55931;SDS011;41837;55.700;37.984;2022-08-20T02:57:35;41.53;;;18.92;;
55931;SDS011;41837;55.700;37.984;2022-08-20T03:00:01;35.75;;;17.77;;
55931;SDS011;41837;55.700;37.984;2022-08-20T03:02:29;41.38;;;17.50;;
55931;SDS011;41837;55.700;37.984;2022-08-20T03:04:56;40.97;;;16.88;;
55931;SDS011;41837;55.700;37.984;2022-08-20T03:07:22;32.70;;;15.57;;
55931;SDS011;41837;55.700;37.984;2022-08-20T03:09:49;28.10;;;14.88;;
55931;SDS011;41837;55.700;37.984;2022-08-20T03:12:15;25.67;;;13.23;;
55931;SDS011;41837;55.700;37.984;2022-08-20T03:14:41;26.02;;;13.52;;
55931;SDS011;41837;55.700;37.984;2022-08-20T03:17:07;24.70;;;12.23;;
55931;SDS011;41837;55.700;37.984;2022-08-20T03:19:34;29.88;;;11.82;;
55931;SDS011;41837;55.700;37.984;2022-08-20T03:22:00;18.35;;;10.68;;
55931;SDS011;41837;55.700;37.984;2022-08-20T03:24:26;22.35;;;9.95;;
55931;SDS011;41837;55.700;37.984;2022-08-20T03:26:52;24.92;;;9.80;;
55931;SDS011;41837;55.700;37.984;2022-08-20T03:29:18;16.52;;;8.60;;
55931;SDS011;41837;55.700;37.984;2022-08-20T03:31:44;25.75;;;8.68;;
55931;SDS011;41837;55.700;37.984;2022-08-20T03:34:10;20.25;;;8.07;;
55931;SDS011;41837;55.700;37.984;2022-08-20T03:36:36;19.35;;;8.80;;
55931;SDS011;41837;55.700;37.984;2022-08-20T03:39:04;16.10;;;8.60;;
55931;SDS011;41837;55.700;37.984;2022-08-20T03:41:30;15.05;;;7.85;;
55931;SDS011;41837;55.700;37.984;2022-08-20T03:43:56;16.27;;;7.30;;
55931;SDS011;41837;55.700;37.984;2022-08-20T03:46:22;16.23;;;7.50;;
55931;SDS011;41837;55.700;37.984;2022-08-20T03:48:52;18.50;;;7.72;;
55931;SDS011;41837;55.700;37.984;2022-08-20T03:51:18;17.00;;;6.57;;
55931;SDS011;41837;55.700;37.984;2022-08-20T03:53:44;14.57;;;6.30;;
55931;SDS011;41837;55.700;37.984;2022-08-20T03:56:11;19.05;;;6.72;;
55931;SDS011;41837;55.700;37.984;2022-08-20T03:58:39;14.23;;;6.10;;
55931;SDS011;41837;55.700;37.984;2022-08-20T04:01:05;15.23;;;6.47;;
55931;SDS011;41837;55.700;37.984;2022-08-20T04:03:32;17.10;;;6.05;;
55931;SDS011;41837;55.700;37.984;2022-08-20T04:05:58;13.32;;;6.13;;
55931;SDS011;41837;55.700;37.984;2022-08-20T04:08:25;16.60;;;6.97;;
55931;SDS011;41837;55.700;37.984;2022-08-20T04:10:52;22.23;;;6.40;;
55931;SDS011;41837;55.700;37.984;2022-08-20T04:13:21;19.75;;;6.43;;
55931;SDS011;41837;55.700;37.984;2022-08-20T04:15:48;16.30;;;7.05;;
55931;SDS011;41837;55.700;37.984;2022-08-20T04:18:14;12.07;;;6.03;;
55931;SDS011;41837;55.700;37.984;2022-08-20T04:20:45;19.17;;;6.65;;
55931;SDS011;41837;55.700;37.984;2022-08-20T04:23:12;23.90;;;6.40;;
55931;SDS011;41837;55.700;37.984;2022-08-20T04:25:39;15.85;;;6.25;;
55931;SDS011;41837;55.700;37.984;2022-08-20T04:28:06;18.40;;;6.07;;
55931;SDS011;41837;55.700;37.984;2022-08-20T04:30:33;13.10;;;5.85;;
55931;SDS011;41837;55.700;37.984;2022-08-20T04:32:59;20.75;;;6.25;;
55931;SDS011;41837;55.700;37.984;2022-08-20T04:35:25;36.08;;;7.25;;
55931;SDS011;41837;55.700;37.984;2022-08-20T04:37:59;17.75;;;6.47;;
55931;SDS011;41837;55.700;37.984;2022-08-20T04:40:26;14.30;;;6.85;;
55931;SDS011;41837;55.700;37.984;2022-08-20T04:43:10;21.48;;;7.78;;
55931;SDS011;41837;55.700;37.984;2022-08-20T04:45:36;19.08;;;6.25;;
55931;SDS011;41837;55.700;37.984;2022-08-20T04:48:04;15.40;;;6.57;;
55931;SDS011;41837;55.700;37.984;2022-08-20T04:50:31;22.70;;;7.45;;
55931;SDS011;41837;55.700;37.984;2022-08-20T04:53:01;19.05;;;7.00;;
55931;SDS011;41837;55.700;37.984;2022-08-20T04:55:28;19.00;;;7.38;;
55931;SDS011;41837;55.700;37.984;2022-08-20T04:57:54;21.50;;;7.45;;
55931;SDS011;41837;55.700;37.984;2022-08-20T05:00:22;30.85;;;7.55;;
55931;SDS011;41837;55.700;37.984;2022-08-20T05:02:48;17.27;;;6.88;;
55931;SDS011;41837;55.700;37.984;2022-08-20T05:05:14;22.35;;;7.20;;
55931;SDS011;41837;55.700;37.984;2022-08-20T05:07:41;14.73;;;6.55;;
55931;SDS011;41837;55.700;37.984;2022-08-20T05:10:08;15.63;;;6.10;;
55931;SDS011;41837;55.700;37.984;2022-08-20T05:12:36;24.55;;;6.63;;
55931;SDS011;41837;55.700;37.984;2022-08-20T05:15:02;18.17;;;6.70;;
55931;SDS011;41837;55.700;37.984;2022-08-20T05:17:29;19.55;;;9.43;;
55931;SDS011;41837;55.700;37.984;2022-08-20T05:19:55;38.03;;;12.20;;
55931;SDS011;41837;55.700;37.984;2022-08-20T05:22:24;24.40;;;12.82;;
55931;SDS011;41837;55.700;37.984;2022-08-20T05:24:50;34.83;;;17.13;;
55931;SDS011;41837;55.700;37.984;2022-08-20T05:27:19;32.50;;;16.17;;
55931;SDS011;41837;55.700;37.984;2022-08-20T05:29:45;18.55;;;10.05;;
55931;SDS011;41837;55.700;37.984;2022-08-20T05:32:11;19.55;;;8.35;;
55931;SDS011;41837;55.700;37.984;2022-08-20T05:34:37;36.10;;;7.10;;
55931;SDS011;41837;55.700;37.984;2022-08-20T05:37:03;17.27;;;5.40;;
55931;SDS011;41837;55.700;37.984;2022-08-20T05:39:30;19.27;;;5.20;;
55931;SDS011;41837;55.700;37.984;2022-08-20T05:41:56;23.98;;;6.55;;
55931;SDS011;41837;55.700;37.984;2022-08-20T05:44:22;20.63;;;5.85;;
55931;SDS011;41837;55.700;37.984;2022-08-20T05:46:48;25.27;;;6.72;;
55931;SDS011;41837;55.700;37.984;2022-08-20T05:49:15;27.45;;;5.78;;
55931;SDS011;41837;55.700;37.984;2022-08-20T05:51:42;24.80;;;5.75;;
55931;SDS011;41837;55.700;37.984;2022-08-20T05:54:08;13.65;;;5.30;;
55931;SDS011;41837;55.700;37.984;2022-08-20T05:56:34;10.55;;;4.63;;
55931;SDS011;41837;55.700;37.984;2022-08-20T05:59:00;13.00;;;4.47;;
55931;SDS011;41837;55.700;37.984;2022-08-20T06:01:29;17.20;;;3.95;;
55931;SDS011;41837;55.700;37.984;2022-08-20T06:03:55;6.85;;;3.72;;
55931;SDS011;41837;55.700;37.984;2022-08-20T06:06:41;19.85;;;4.68;;
55931;SDS011;41837;55.700;37.984;2022-08-20T06:09:07;15.80;;;4.25;;
55931;SDS011;41837;55.700;37.984;2022-08-20T06:11:33;12.23;;;4.30;;
55931;SDS011;41837;55.700;37.984;2022-08-20T06:13:59;20.42;;;4.70;;
55931;SDS011;41837;55.700;37.984;2022-08-20T06:16:25;17.27;;;4.50;;
55931;SDS011;41837;55.700;37.984;2022-08-20T06:18:51;11.18;;;4.10;;
55931;SDS011;41837;55.700;37.984;2022-08-20T06:21:17;15.98;;;4.13;;
55931;SDS011;41837;55.700;37.984;2022-08-20T06:23:43;13.82;;;4.03;;
55931;SDS011;41837;55.700;37.984;2022-08-20T06:26:10;19.23;;;4.60;;
55931;SDS011;41837;55.700;37.984;2022-08-20T06:28:36;12.43;;;3.80;;
55931;SDS011;41837;55.700;37.984;2022-08-20T06:31:02;29.33;;;5.00;;
55931;SDS011;41837;55.700;37.984;2022-08-20T06:33:27;8.30;;;3.20;;
55931;SDS011;41837;55.700;37.984;2022-08-20T06:35:53;11.80;;;3.63;;
55931;SDS011;41837;55.700;37.984;2022-08-20T06:38:20;18.05;;;4.07;;
55931;SDS011;41837;55.700;37.984;2022-08-20T06:40:46;28.17;;;4.25;;
55931;SDS011;41837;55.700;37.984;2022-08-20T06:43:12;12.70;;;4.10;;
55931;SDS011;41837;55.700;37.984;2022-08-20T06:45:38;13.32;;;4.40;;
55931;SDS011;41837;55.700;37.984;2022-08-20T06:48:06;7.43;;;3.20;;
55931;SDS011;41837;55.700;37.984;2022-08-20T06:50:34;11.85;;;3.50;;
55931;SDS011;41837;55.700;37.984;2022-08-20T06:53:04;6.88;;;3.42;;
55931;SDS011;41837;55.700;37.984;2022-08-20T06:55:30;15.60;;;4.00;;
55931;SDS011;41837;55.700;37.984;2022-08-20T06:57:58;30.67;;;5.10;;
55931;SDS011;41837;55.700;37.984;2022-08-20T07:00:24;15.30;;;4.05;;
55931;SDS011;41837;55.700;37.984;2022-08-20T07:02:50;18.75;;;4.18;;
55931;SDS011;41837;55.700;37.984;2022-08-20T07:05:16;19.38;;;4.22;;
55931;SDS011;41837;55.700;37.984;2022-08-20T07:07:45;11.63;;;4.10;;
55931;SDS011;41837;55.700;37.984;2022-08-20T07:10:13;10.70;;;3.40;;
55931;SDS011;41837;55.700;37.984;2022-08-20T07:12:39;24.52;;;4.28;;
55931;SDS011;41837;55.700;37.984;2022-08-20T07:15:06;20.55;;;5.72;;
55931;SDS011;41837;55.700;37.984;2022-08-20T07:17:36;13.45;;;5.63;;
55931;SDS011;41837;55.700;37.984;2022-08-20T07:20:06;12.27;;;4.40;;
55931;SDS011;41837;55.700;37.984;2022-08-20T07:22:33;26.17;;;4.82;;
55931;SDS011;41837;55.700;37.984;2022-08-20T07:25:02;20.90;;;5.28;;
55931;SDS011;41837;55.700;37.984;2022-08-20T07:27:29;18.10;;;4.60;;
55931;SDS011;41837;55.700;37.984;2022-08-20T07:29:54;10.90;;;3.78;;
55931;SDS011;41837;55.700;37.984;2022-08-20T07:32:39;17.63;;;5.22;;
55931;SDS011;41837;55.700;37.984;2022-08-20T07:35:06;20.15;;;7.47;;
55931;SDS011;41837;55.700;37.984;2022-08-20T07:37:37;26.00;;;6.30;;
55931;SDS011;41837;55.700;37.984;2022-08-20T07:40:04;14.35;;;4.53;;
55931;SDS011;41837;55.700;37.984;2022-08-20T07:42:30;25.20;;;4.65;;
55931;SDS011;41837;55.700;37.984;2022-08-20T07:44:56;11.63;;;4.03;;
55931;SDS011;41837;55.700;37.984;2022-08-20T07:47:22;15.57;;;4.13;;
55931;SDS011;41837;55.700;37.984;2022-08-20T07:49:49;15.68;;;4.55;;
55931;SDS011;41837;55.700;37.984;2022-08-20T07:52:14;22.83;;;4.10;;
55931;SDS011;41837;55.700;37.984;2022-08-20T07:54:41;21.48;;;4.97;;
55931;SDS011;41837;55.700;37.984;2022-08-20T07:57:07;31.13;;;4.78;;
55931;SDS011;41837;55.700;37.984;2022-08-20T07:59:36;38.17;;;5.38;;
55931;SDS011;41837;55.700;37.984;2022-08-20T08:02:03;33.65;;;6.10;;
55931;SDS011;41837;55.700;37.984;2022-08-20T08:04:29;19.38;;;4.78;;
55931;SDS011;41837;55.700;37.984;2022-08-20T08:06:55;37.15;;;5.78;;
55931;SDS011;41837;55.700;37.984;2022-08-20T08:09:25;33.30;;;5.55;;
55931;SDS011;41837;55.700;37.984;2022-08-20T08:11:51;14.27;;;3.97;;
55931;SDS011;41837;55.700;37.984;2022-08-20T08:14:22;13.57;;;3.95;;
55931;SDS011;41837;55.700;37.984;2022-08-20T08:16:52;15.07;;;4.78;;
55931;SDS011;41837;55.700;37.984;2022-08-20T08:19:18;19.35;;;4.55;;
55931;SDS011;41837;55.700;37.984;2022-08-20T08:21:44;13.10;;;3.38;;
55931;SDS011;41837;55.700;37.984;2022-08-20T08:24:12;25.88;;;4.50;;
55931;SDS011;41837;55.700;37.984;2022-08-20T08:26:38;28.30;;;4.60;;
55931;SDS011;41837;55.700;37.984;2022-08-20T08:29:04;13.05;;;4.10;;
55931;SDS011;41837;55.700;37.984;2022-08-20T08:31:32;14.07;;;4.28;;
55931;SDS011;41837;55.700;37.984;2022-08-20T08:33:58;18.80;;;4.47;;
55931;SDS011;41837;55.700;37.984;2022-08-20T08:36:24;19.25;;;4.40;;
55931;SDS011;41837;55.700;37.984;2022-08-20T08:38:51;26.05;;;4.78;;
55931;SDS011;41837;55.700;37.984;2022-08-20T08:41:21;25.08;;;4.80;;
55931;SDS011;41837;55.700;37.984;2022-08-20T08:43:51;15.68;;;4.75;;
55931;SDS011;41837;55.700;37.984;2022-08-20T08:46:19;8.52;;;4.90;;
55931;SDS011;41837;55.700;37.984;2022-08-20T08:48:47;15.38;;;6.65;;
55931;SDS011;41837;55.700;37.984;2022-08-20T08:51:16;15.25;;;6.03;;
55931;SDS011;41837;55.700;37.984;2022-08-20T08:53:50;18.42;;;6.05;;
55931;SDS011;41837;55.700;37.984;2022-08-20T08:56:23;17.98;;;5.95;;
55931;SDS011;41837;55.700;37.984;2022-08-20T08:58:49;12.57;;;6.05;;
55931;SDS011;41837;55.700;37.984;2022-08-20T09:01:16;23.85;;;6.38;;
55931;SDS011;41837;55.700;37.984;2022-08-20T09:03:44;22.95;;;7.15;;
55931;SDS011;41837;55.700;37.984;2022-08-20T09:06:11;19.35;;;7.68;;
55931;SDS011;41837;55.700;37.984;2022-08-20T09:09:01;12.98;;;5.88;;
55931;SDS011;41837;55.700;37.984;2022-08-20T09:11:28;21.00;;;8.48;;
55931;SDS011;41837;55.700;37.984;2022-08-20T09:13:54;26.50;;;9.95;;
55931;SDS011;41837;55.700;37.984;2022-08-20T09:16:21;14.90;;;7.72;;
55931;SDS011;41837;55.700;37.984;2022-08-20T09:18:48;16.88;;;8.00;;
55931;SDS011;41837;55.700;37.984;2022-08-20T09:21:15;25.38;;;7.50;;
55931;SDS011;41837;55.700;37.984;2022-08-20T09:23:40;21.90;;;8.73;;
55931;SDS011;41837;55.700;37.984;2022-08-20T09:26:06;23.45;;;9.32;;
55931;SDS011;41837;55.700;37.984;2022-08-20T09:28:35;31.80;;;9.13;;
55931;SDS011;41837;55.700;37.984;2022-08-20T09:31:01;23.92;;;9.93;;
55931;SDS011;41837;55.700;37.984;2022-08-20T09:33:28;23.30;;;9.40;;
55931;SDS011;41837;55.700;37.984;2022-08-20T09:35:54;21.73;;;9.38;;
55931;SDS011;41837;55.700;37.984;2022-08-20T09:38:20;22.13;;;9.15;;
55931;SDS011;41837;55.700;37.984;2022-08-20T09:40:45;22.02;;;9.02;;
55931;SDS011;41837;55.700;37.984;2022-08-20T09:43:11;17.52;;;8.25;;
55931;SDS011;41837;55.700;37.984;2022-08-20T09:45:38;24.85;;;9.65;;
55931;SDS011;41837;55.700;37.984;2022-08-20T09:48:04;18.73;;;8.52;;
55931;SDS011;41837;55.700;37.984;2022-08-20T09:50:31;24.95;;;9.40;;
55931;SDS011;41837;55.700;37.984;2022-08-20T09:52:58;16.98;;;8.95;;
55931;SDS011;41837;55.700;37.984;2022-08-20T09:55:33;20.20;;;8.15;;
55931;SDS011;41837;55.700;37.984;2022-08-20T10:00:46;17.90;;;8.57;;
55931;SDS011;41837;55.700;37.984;2022-08-20T10:03:13;21.60;;;9.07;;
55931;SDS011;41837;55.700;37.984;2022-08-20T10:05:39;22.98;;;8.27;;
55931;SDS011;41837;55.700;37.984;2022-08-20T10:08:06;20.30;;;8.07;;
55931;SDS011;41837;55.700;37.984;2022-08-20T10:10:33;17.60;;;7.53;;
55931;SDS011;41837;55.700;37.984;2022-08-20T10:12:59;15.88;;;7.28;;
55931;SDS011;41837;55.700;37.984;2022-08-20T10:15:25;14.43;;;7.13;;
55931;SDS011;41837;55.700;37.984;2022-08-20T10:17:51;13.95;;;6.78;;
55931;SDS011;41837;55.700;37.984;2022-08-20T10:20:18;16.45;;;6.07;;
55931;SDS011;41837;55.700;37.984;2022-08-20T10:22:44;17.42;;;6.13;;
55931;SDS011;41837;55.700;37.984;2022-08-20T10:25:10;16.60;;;6.38;;
55931;SDS011;41837;55.700;37.984;2022-08-20T10:27:37;16.73;;;5.88;;
55931;SDS011;41837;55.700;37.984;2022-08-20T10:30:03;13.80;;;5.95;;
55931;SDS011;41837;55.700;37.984;2022-08-20T10:32:29;11.07;;;5.90;;
55931;SDS011;41837;55.700;37.984;2022-08-20T10:34:56;14.20;;;5.15;;
55931;SDS011;41837;55.700;37.984;2022-08-20T10:37:22;13.70;;;6.15;;
55931;SDS011;41837;55.700;37.984;2022-08-20T10:39:48;11.95;;;6.00;;
55931;SDS011;41837;55.700;37.984;2022-08-20T10:42:14;15.30;;;6.07;;
55931;SDS011;41837;55.700;37.984;2022-08-20T10:44:40;16.52;;;5.80;;
55931;SDS011;41837;55.700;37.984;2022-08-20T10:49:43;15.15;;;5.18;;
55931;SDS011;41837;55.700;37.984;2022-08-20T10:52:09;10.52;;;5.25;;
55931;SDS011;41837;55.700;37.984;2022-08-20T10:54:35;15.02;;;5.22;;
55931;SDS011;41837;55.700;37.984;2022-08-20T10:57:02;15.77;;;4.97;;
55931;SDS011;41837;55.700;37.984;2022-08-20T10:59:29;11.10;;;4.80;;
55931;SDS011;41837;55.700;37.984;2022-08-20T11:01:54;11.18;;;4.80;;
55931;SDS011;41837;55.700;37.984;2022-08-20T11:04:21;15.93;;;4.65;;
55931;SDS011;41837;55.700;37.984;2022-08-20T11:06:47;14.27;;;4.43;;
55931;SDS011;41837;55.700;37.984;2022-08-20T11:09:13;12.95;;;4.05;;
55931;SDS011;41837;55.700;37.984;2022-08-20T11:11:39;13.05;;;4.18;;
55931;SDS011;41837;55.700;37.984;2022-08-20T11:14:05;8.40;;;3.92;;
55931;SDS011;41837;55.700;37.984;2022-08-20T11:16:30;12.18;;;4.38;;
55931;SDS011;41837;55.700;37.984;2022-08-20T11:18:56;13.38;;;3.78;;
55931;SDS011;41837;55.700;37.984;2022-08-20T11:21:22;10.60;;;3.78;;
55931;SDS011;41837;55.700;37.984;2022-08-20T11:23:48;13.55;;;3.05;;
55931;SDS011;41837;55.700;37.984;2022-08-20T11:26:17;11.00;;;3.88;;
55931;SDS011;41837;55.700;37.984;2022-08-20T11:28:46;11.25;;;3.80;;
55931;SDS011;41837;55.700;37.984;2022-08-20T11:31:12;9.02;;;2.72;;
55931;SDS011;41837;55.700;37.984;2022-08-20T11:33:38;12.68;;;3.80;;
55931;SDS011;41837;55.700;37.984;2022-08-20T11:36:04;12.00;;;3.30;;
55931;SDS011;41837;55.700;37.984;2022-08-20T11:38:31;14.45;;;5.03;;
55931;SDS011;41837;55.700;37.984;2022-08-20T11:40:57;8.68;;;3.72;;
55931;SDS011;41837;55.700;37.984;2022-08-20T11:43:23;10.18;;;3.80;;
55931;SDS011;41837;55.700;37.984;2022-08-20T11:45:50;12.00;;;3.60;;
55931;SDS011;41837;55.700;37.984;2022-08-20T11:48:17;7.50;;;3.17;;
55931;SDS011;41837;55.700;37.984;2022-08-20T11:50:43;11.07;;;3.10;;
55931;SDS011;41837;55.700;37.984;2022-08-20T11:53:10;12.70;;;3.30;;
55931;SDS011;41837;55.700;37.984;2022-08-20T11:55:36;9.65;;;3.42;;
55931;SDS011;41837;55.700;37.984;2022-08-20T11:58:02;10.98;;;3.55;;
55931;SDS011;41837;55.700;37.984;2022-08-20T12:00:29;21.50;;;3.75;;
55931;SDS011;41837;55.700;37.984;2022-08-20T12:02:55;12.65;;;3.50;;
55931;SDS011;41837;55.700;37.984;2022-08-20T12:05:21;14.15;;;3.55;;
55931;SDS011;41837;55.700;37.984;2022-08-20T12:07:47;19.00;;;4.18;;
55931;SDS011;41837;55.700;37.984;2022-08-20T12:10:13;13.65;;;3.15;;
55931;SDS011;41837;55.700;37.984;2022-08-20T12:12:39;12.82;;;3.10;;
55931;SDS011;41837;55.700;37.984;2022-08-20T12:15:06;11.45;;;2.97;;
55931;SDS011;41837;55.700;37.984;2022-08-20T12:17:33;9.38;;;3.00;;
55931;SDS011;41837;55.700;37.984;2022-08-20T12:20:00;10.75;;;3.03;;
55931;SDS011;41837;55.700;37.984;2022-08-20T12:22:28;13.60;;;3.00;;
55931;SDS011;41837;55.700;37.984;2022-08-20T12:24:54;15.43;;;3.33;;
55931;SDS011;41837;55.700;37.984;2022-08-20T12:27:21;9.90;;;2.90;;
55931;SDS011;41837;55.700;37.984;2022-08-20T12:29:48;6.63;;;3.08;;
55931;SDS011;41837;55.700;37.984;2022-08-20T12:32:17;15.85;;;2.90;;
55931;SDS011;41837;55.700;37.984;2022-08-20T12:34:43;13.07;;;3.00;;
55931;SDS011;41837;55.700;37.984;2022-08-20T12:37:10;15.55;;;2.72;;
55931;SDS011;41837;55.700;37.984;2022-08-20T12:39:37;7.72;;;3.10;;
55931;SDS011;41837;55.700;37.984;2022-08-20T12:42:05;9.30;;;2.67;;
55931;SDS011;41837;55.700;37.984;2022-08-20T12:44:31;6.00;;;2.75;;
55931;SDS011;41837;55.700;37.984;2022-08-20T12:47:21;22.10;;;3.55;;
55931;SDS011;41837;55.700;37.984;2022-08-20T12:49:46;16.83;;;3.30;;
55931;SDS011;41837;55.700;37.984;2022-08-20T12:52:12;12.90;;;3.70;;
55931;SDS011;41837;55.700;37.984;2022-08-20T12:54:39;10.55;;;3.42;;
55931;SDS011;41837;55.700;37.984;2022-08-20T12:57:05;17.20;;;4.10;;
55931;SDS011;41837;55.700;37.984;2022-08-20T12:59:32;13.25;;;4.13;;
55931;SDS011;41837;55.700;37.984;2022-08-20T13:01:58;13.27;;;5.35;;
55931;SDS011;41837;55.700;37.984;2022-08-20T13:04:24;11.05;;;4.40;;
55931;SDS011;41837;55.700;37.984;2022-08-20T13:06:50;12.23;;;3.90;;
55931;SDS011;41837;55.700;37.984;2022-08-20T13:09:16;11.73;;;4.15;;
55931;SDS011;41837;55.700;37.984;2022-08-20T13:11:42;11.95;;;4.35;;
55931;SDS011;41837;55.700;37.984;2022-08-20T13:14:09;13.35;;;4.05;;
55931;SDS011;41837;55.700;37.984;2022-08-20T13:16:35;8.80;;;4.00;;
55931;SDS011;41837;55.700;37.984;2022-08-20T13:19:01;22.13;;;4.40;;
55931;SDS011;41837;55.700;37.984;2022-08-20T13:21:27;19.60;;;4.97;;
55931;SDS011;41837;55.700;37.984;2022-08-20T13:23:53;15.60;;;4.75;;
55931;SDS011;41837;55.700;37.984;2022-08-20T13:26:19;13.15;;;4.05;;
55931;SDS011;41837;55.700;37.984;2022-08-20T13:28:46;11.23;;;4.03;;
55931;SDS011;41837;55.700;37.984;2022-08-20T13:31:11;10.27;;;4.55;;
55931;SDS011;41837;55.700;37.984;2022-08-20T13:33:38;11.65;;;3.75;;
55931;SDS011;41837;55.700;37.984;2022-08-20T13:36:04;12.68;;;4.25;;
55931;SDS011;41837;55.700;37.984;2022-08-20T13:38:30;21.52;;;4.60;;
55931;SDS011;41837;55.700;37.984;2022-08-20T13:40:56;10.75;;;3.92;;
55931;SDS011;41837;55.700;37.984;2022-08-20T13:43:23;18.33;;;4.28;;
55931;SDS011;41837;55.700;37.984;2022-08-20T13:45:48;14.10;;;3.97;;
55931;SDS011;41837;55.700;37.984;2022-08-20T13:48:14;16.23;;;4.10;;
55931;SDS011;41837;55.700;37.984;2022-08-20T13:50:41;10.50;;;3.95;;
55931;SDS011;41837;55.700;37.984;2022-08-20T13:53:07;15.05;;;4.03;;
55931;SDS011;41837;55.700;37.984;2022-08-20T13:55:33;17.15;;;4.13;;
55931;SDS011;41837;55.700;37.984;2022-08-20T13:58:03;27.35;;;4.43;;
55931;SDS011;41837;55.700;37.984;2022-08-20T14:00:31;13.60;;;4.20;;
55931;SDS011;41837;55.700;37.984;2022-08-20T14:03:02;14.38;;;3.75;;
55931;SDS011;41837;55.700;37.984;2022-08-20T14:05:29;14.90;;;4.70;;
55931;SDS011;41837;55.700;37.984;2022-08-20T14:07:59;12.93;;;3.50;;
55931;SDS011;41837;55.700;37.984;2022-08-20T14:10:28;9.60;;;3.77;;
55931;SDS011;41837;55.700;37.984;2022-08-20T14:12:57;12.63;;;3.90;;
55931;SDS011;41837;55.700;37.984;2022-08-20T14:15:25;13.98;;;3.58;;
55931;SDS011;41837;55.700;37.984;2022-08-20T14:17:52;12.95;;;3.72;;
55931;SDS011;41837;55.700;37.984;2022-08-20T14:20:19;16.35;;;4.28;;
55931;SDS011;41837;55.700;37.984;2022-08-20T14:22:45;11.45;;;4.47;;
55931;SDS011;41837;55.700;37.984;2022-08-20T14:25:13;9.27;;;3.85;;
55931;SDS011;41837;55.700;37.984;2022-08-20T14:27:39;16.60;;;4.57;;
55931;SDS011;41837;55.700;37.984;2022-08-20T14:30:08;11.13;;;3.67;;
55931;SDS011;41837;55.700;37.984;2022-08-20T14:32:34;11.77;;;3.40;;